Time;durP1;ratioP1;P1;durP2;ratioP2;P2;SDS_P1;SDS_P2;PMS_P1;PMS_P2;Temp;Humidity;BMP_temperature;BMP_pressure;BME280_temperature;BME280_humidity;BME280_pressure;Samples;Min_cycle;Max_cycle;Signal;HPM_P1;HPM_P2
2023/01/03 00:00:49;;;;;;;1.00;0.90;;;8.80;97.30;;;;;;5009685;28;20338;-92
2023/01/03 00:03:16;;;;;;;1.40;1.30;;;8.80;97.30;;;;;;5006656;28;20170;-91
2023/01/03 00:05:46;;;;;;;3.43;1.50;;;8.80;97.30;;;;;;5010101;28;20179;-91
2023/01/03 00:08:12;;;;;;;1.83;1.73;;;8.80;97.30;;;;;;5008853;28;20429;-90
2023/01/03 00:10:38;;;;;;;1.23;1.20;;;8.80;97.30;;;;;;5014663;28;20476;-92
2023/01/03 00:13:04;;;;;;;6.83;2.07;;;8.80;97.30;;;;;;5014030;28;20436;-88
2023/01/03 00:15:32;;;;;;;1.30;1.20;;;8.80;97.30;;;;;;5013904;28;20181;-91
2023/01/03 00:17:58;;;;;;;1.30;1.20;;;8.80;97.30;;;;;;5013411;28;20417;-91
2023/01/03 00:20:23;;;;;;;1.20;1.10;;;8.90;97.30;;;;;;5011969;28;20425;-86
2023/01/03 00:22:49;;;;;;;1.47;1.30;;;8.90;97.30;;;;;;5010610;28;20185;-88
2023/01/03 00:25:14;;;;;;;2.00;1.90;;;8.90;97.30;;;;;;5003109;28;20180;-91
2023/01/03 00:27:40;;;;;;;1.30;1.00;;;8.90;97.30;;;;;;5008439;28;20340;-87
2023/01/03 00:30:06;;;;;;;1.50;1.40;;;8.90;97.30;;;;;;5008572;28;20178;-92
2023/01/03 00:32:31;;;;;;;2.40;1.40;;;8.90;97.30;;;;;;5009169;28;20201;-90
2023/01/03 00:34:57;;;;;;;1.97;1.60;;;8.90;97.30;;;;;;5002500;28;20483;-90
2023/01/03 00:37:22;;;;;;;1.50;1.30;;;8.90;97.30;;;;;;5003344;28;20213;-89
2023/01/03 00:39:48;;;;;;;1.10;1.00;;;8.90;97.30;;;;;;4983530;28;20190;-90
2023/01/03 00:42:13;;;;;;;1.23;1.13;;;8.90;97.30;;;;;;4987607;28;20249;-90
2023/01/03 00:44:39;;;;;;;1.33;1.23;;;8.80;97.30;;;;;;4989780;28;20233;-90
2023/01/03 00:47:04;;;;;;;1.30;1.20;;;8.80;97.30;;;;;;4988682;28;20185;-89
2023/01/03 00:49:30;;;;;;;1.83;1.43;;;8.80;97.30;;;;;;4984471;28;20582;-93
2023/01/03 00:51:56;;;;;;;1.10;1.00;;;8.80;97.30;;;;;;4992314;28;20198;-90
2023/01/03 00:54:22;;;;;;;1.20;1.10;;;8.70;97.30;;;;;;4992077;28;20226;-92
2023/01/03 00:56:48;;;;;;;1.70;1.20;;;8.70;97.30;;;;;;4991046;28;20434;-91
2023/01/03 00:59:15;;;;;;;1.43;1.33;;;8.60;97.30;;;;;;4992030;28;20477;-89
2023/01/03 01:01:50;;;;;;;1.90;1.57;;;8.60;97.30;;;;;;4991828;28;20474;-92
2023/01/03 01:04:22;;;;;;;1.20;1.10;;;8.60;97.30;;;;;;4993378;28;20448;-91
2023/01/03 01:06:51;;;;;;;1.40;1.30;;;8.60;97.30;;;;;;4993367;28;20416;-91
2023/01/03 01:09:23;;;;;;;1.10;1.00;;;8.50;97.30;;;;;;4991779;28;20478;-89
2023/01/03 01:11:49;;;;;;;1.30;1.20;;;8.50;97.30;;;;;;4994340;28;20446;-92
2023/01/03 01:14:19;;;;;;;1.27;1.17;;;8.50;97.30;;;;;;4993364;28;20485;-91
2023/01/03 01:16:56;;;;;;;3.00;1.73;;;8.40;97.30;;;;;;4995501;28;20434;-92
2023/01/03 01:19:28;;;;;;;2.13;1.23;;;8.40;97.30;;;;;;4995827;28;20418;-93
2023/01/03 01:21:53;;;;;;;3.77;3.57;;;8.40;97.30;;;;;;5011180;28;20459;-92
2023/01/03 01:24:19;;;;;;;1.67;1.60;;;8.30;97.30;;;;;;5035030;28;20463;-91
2023/01/03 01:26:45;;;;;;;1.30;1.20;;;8.30;97.30;;;;;;5034689;28;20177;-91
2023/01/03 01:29:12;;;;;;;1.63;1.53;;;8.30;97.30;;;;;;5033332;28;20171;-92
2023/01/03 01:31:38;;;;;;;1.40;1.30;;;8.30;97.30;;;;;;5033539;28;20447;-90
2023/01/03 01:34:03;;;;;;;1.20;1.10;;;8.30;97.30;;;;;;5036176;28;20447;-93
2023/01/03 01:36:31;;;;;;;2.60;1.50;;;8.30;97.30;;;;;;5036902;28;20176;-92
2023/01/03 01:39:00;;;;;;;1.47;1.37;;;8.30;97.30;;;;;;5023669;28;20173;-92
2023/01/03 01:44:43;;;;;;;5.23;1.30;;;8.30;97.30;;;;;;5017483;28;20432;-91
2023/01/03 01:47:49;;;;;;;1.10;1.00;;;8.30;97.30;;;;;;5016513;28;20416;-92
2023/01/03 01:50:20;;;;;;;2.77;2.60;;;8.30;97.30;;;;;;5014829;28;20452;-87
2023/01/03 01:53:03;;;;;;;1.87;1.73;;;8.30;97.30;;;;;;5011953;28;20572;-90
2023/01/03 01:55:43;;;;;;;1.40;1.33;;;8.30;97.30;;;;;;5010088;28;20428;-89
2023/01/03 01:58:09;;;;;;;2.00;1.90;;;8.30;97.30;;;;;;5010006;28;20412;-89
2023/01/03 02:00:36;;;;;;;2.47;2.30;;;8.30;97.30;;;;;;5008462;28;20456;-89
2023/01/03 02:03:02;;;;;;;4.20;2.60;;;8.30;97.30;;;;;;5007733;28;20417;-91
2023/01/03 02:05:29;;;;;;;1.40;1.30;;;8.30;97.30;;;;;;5012090;28;20445;-91
2023/01/03 02:07:54;;;;;;;1.30;1.20;;;8.30;97.30;;;;;;5014873;28;20405;-92
2023/01/03 02:10:34;;;;;;;1.43;1.33;;;8.30;97.30;;;;;;5011283;28;20455;-90
2023/01/03 02:13:32;;;;;;;1.63;1.50;;;8.30;97.30;;;;;;5011617;28;20177;-90
2023/01/03 02:16:04;;;;;;;4.30;1.30;;;8.30;97.30;;;;;;5010032;28;20493;-91
2023/01/03 02:19:26;;;;;;;1.33;1.23;;;8.30;97.30;;;;;;5007727;28;20425;-91
2023/01/03 02:22:29;;;;;;;1.30;1.20;;;8.30;97.30;;;;;;4973342;28;20469;-92
2023/01/03 02:25:42;;;;;;;1.30;1.20;;;8.20;97.30;;;;;;4965476;28;20409;-86
2023/01/03 02:28:26;;;;;;;3.13;1.40;;;8.20;97.30;;;;;;5005961;28;20409;-91
2023/01/03 02:31:01;;;;;;;1.20;1.10;;;8.20;97.30;;;;;;5007105;28;20443;-91
2023/01/03 02:33:53;;;;;;;1.43;1.33;;;8.20;97.30;;;;;;5007974;28;20439;-90
2023/01/03 02:36:54;;;;;;;1.20;1.10;;;8.20;97.30;;;;;;5001573;28;20437;-90
2023/01/03 02:39:27;;;;;;;1.10;1.00;;;8.20;97.30;;;;;;4951280;28;20453;-90
2023/01/03 02:45:08;;;;;;;5.80;1.20;;;8.20;97.30;;;;;;5010120;28;20420;-92
2023/01/03 02:48:07;;;;;;;1.23;1.13;;;8.20;97.30;;;;;;5008945;28;20444;-89
2023/01/03 02:50:41;;;;;;;2.37;1.40;;;8.20;97.30;;;;;;4994333;28;20429;-90
2023/01/03 02:53:11;;;;;;;1.47;1.40;;;8.10;97.30;;;;;;5009426;28;20442;-90
2023/01/03 02:55:38;;;;;;;1.47;1.37;;;8.10;97.30;;;;;;5010039;28;20413;-91
2023/01/03 02:58:34;;;;;;;1.20;1.10;;;8.10;97.30;;;;;;5012138;28;20452;-91
2023/01/03 03:01:02;;;;;;;1.47;1.40;;;8.00;97.30;;;;;;5006172;28;20457;-92
2023/01/03 03:03:35;;;;;;;1.30;1.20;;;8.00;97.30;;;;;;5013361;28;20433;-91
2023/01/03 03:06:11;;;;;;;1.23;1.13;;;8.00;97.30;;;;;;5012407;28;20428;-90
2023/01/03 03:08:37;;;;;;;1.33;1.23;;;7.90;97.30;;;;;;5014884;28;20413;-91
2023/01/03 03:13:51;;;;;;;1.87;1.37;;;7.90;97.30;;;;;;5016096;28;20157;-92
2023/01/03 03:16:47;;;;;;;2.07;1.93;;;7.90;97.30;;;;;;5015019;28;20433;-92
2023/01/03 03:25:26;;;;;;;1.20;1.10;;;7.80;97.30;;;;;;5016289;28;20392;-92
2023/01/03 03:30:44;;;;;;;1.80;1.30;;;7.70;97.30;;;;;;5013081;28;20444;-91
2023/01/03 03:33:12;;;;;;;1.10;1.00;;;7.70;97.30;;;;;;5008803;28;20427;-91
2023/01/03 03:35:53;;;;;;;1.83;1.73;;;7.70;97.30;;;;;;5010435;28;20431;-91
2023/01/03 03:38:31;;;;;;;6.50;2.50;;;7.70;97.30;;;;;;5009777;28;20429;-91
2023/01/03 03:46:29;;;;;;;1.50;1.40;;;7.60;97.30;;;;;;5011581;28;20409;-85
2023/01/03 03:49:36;;;;;;;1.20;1.10;;;7.60;97.30;;;;;;5003795;28;20432;-85
2023/01/03 03:52:09;;;;;;;1.57;1.37;;;7.50;97.30;;;;;;4983958;28;20466;-83
2023/01/03 03:54:37;;;;;;;1.40;1.30;;;7.50;97.30;;;;;;4973745;28;20421;-85
2023/01/03 03:57:25;;;;;;;1.20;1.10;;;7.60;97.30;;;;;;4973307;28;20415;-84
2023/01/03 03:59:56;;;;;;;1.33;1.30;;;7.60;97.30;;;;;;4973623;28;20414;-84
2023/01/03 04:02:24;;;;;;;1.30;1.20;;;7.70;97.30;;;;;;4983687;28;20526;-85
2023/01/03 04:04:56;;;;;;;1.40;1.30;;;7.70;97.30;;;;;;4984823;28;20428;-83
2023/01/03 04:07:22;;;;;;;3.47;1.83;;;7.70;97.30;;;;;;4972369;28;20805;-85
2023/01/03 04:09:47;;;;;;;1.47;1.20;;;7.70;97.30;;;;;;4973825;28;20412;-86
2023/01/03 04:12:13;;;;;;;5.30;1.80;;;7.70;97.30;;;;;;4976342;28;20224;-84
2023/01/03 04:14:38;;;;;;;4.00;2.80;;;7.70;97.30;;;;;;4989606;28;20185;-84
2023/01/03 04:17:04;;;;;;;1.57;1.53;;;7.60;97.30;;;;;;4989333;28;20197;-85
2023/01/03 04:19:29;;;;;;;1.40;1.30;;;7.60;97.30;;;;;;4989444;28;20189;-84
2023/01/03 04:21:55;;;;;;;1.57;1.47;;;7.50;97.30;;;;;;4989824;28;20258;-84
2023/01/03 04:24:21;;;;;;;4.70;1.83;;;7.50;97.30;;;;;;4981002;28;20210;-87
2023/01/03 04:26:46;;;;;;;1.87;1.70;;;7.50;97.30;;;;;;4972816;28;20185;-83
2023/01/03 04:29:12;;;;;;;1.30;1.20;;;7.50;97.30;;;;;;4973293;28;20414;-83
2023/01/03 04:31:37;;;;;;;1.50;1.40;;;7.50;97.30;;;;;;4973913;28;20205;-83
2023/01/03 04:34:03;;;;;;;3.00;2.00;;;7.40;97.30;;;;;;4972771;28;20225;-86
2023/01/03 04:36:28;;;;;;;3.10;1.87;;;7.40;97.30;;;;;;4973256;28;20190;-83
2023/01/03 04:38:54;;;;;;;1.20;1.10;;;7.40;97.30;;;;;;4974386;28;20213;-83
2023/01/03 04:41:19;;;;;;;1.53;1.43;;;7.40;97.30;;;;;;4972371;28;20300;-87
2023/01/03 04:44:03;;;;;;;1.47;1.43;;;7.30;97.30;;;;;;4972729;28;20280;-83
2023/01/03 04:46:30;;;;;;;1.83;1.73;;;7.30;97.30;;;;;;4972876;28;20269;-83
2023/01/03 04:48:56;;;;;;;1.83;1.77;;;7.40;97.30;;;;;;4973648;28;20418;-84
2023/01/03 04:51:21;;;;;;;1.03;0.93;;;7.40;97.30;;;;;;4973590;28;20434;-83
2023/01/03 04:53:47;;;;;;;3.53;1.83;;;7.30;97.30;;;;;;4972360;28;20281;-83
2023/01/03 04:56:12;;;;;;;2.43;1.80;;;7.30;97.30;;;;;;4973744;28;20178;-83
2023/01/03 04:58:38;;;;;;;2.57;2.40;;;7.40;97.30;;;;;;4972472;28;20175;-84
2023/01/03 05:01:06;;;;;;;6.73;1.73;;;7.40;97.30;;;;;;4972414;28;20213;-85
2023/01/03 05:03:33;;;;;;;2.17;1.50;;;7.40;97.30;;;;;;4971960;28;20445;-83
2023/01/03 05:06:06;;;;;;;1.60;1.50;;;7.40;97.30;;;;;;4972216;28;20433;-89
2023/01/03 05:08:33;;;;;;;4.50;2.67;;;7.40;97.30;;;;;;4972236;28;20410;-83
2023/01/03 05:10:59;;;;;;;1.57;1.47;;;7.40;97.30;;;;;;4973476;28;20904;-83
2023/01/03 05:13:24;;;;;;;2.73;2.17;;;7.40;97.30;;;;;;4973572;28;20414;-83
2023/01/03 05:15:50;;;;;;;2.80;2.60;;;7.40;97.30;;;;;;4973587;28;20210;-85
2023/01/03 05:18:15;;;;;;;2.10;1.53;;;7.40;97.30;;;;;;4971498;28;20215;-83
2023/01/03 05:26:14;;;;;;;1.57;1.37;;;7.50;97.30;;;;;;4973727;28;20421;-83
2023/01/03 05:28:42;;;;;;;2.53;1.63;;;7.50;97.30;;;;;;4972455;28;20783;-83
2023/01/03 05:31:07;;;;;;;3.80;2.37;;;7.40;97.30;;;;;;4972008;28;20418;-85
2023/01/03 05:33:33;;;;;;;1.70;1.60;;;7.40;97.30;;;;;;4972088;28;20488;-84
2023/01/03 05:35:58;;;;;;;1.20;1.10;;;7.40;97.30;;;;;;4973551;28;20261;-85
2023/01/03 05:38:24;;;;;;;1.53;1.43;;;7.40;97.30;;;;;;4971742;28;20190;-84
2023/01/03 05:40:50;;;;;;;1.83;1.50;;;7.40;97.30;;;;;;4971945;28;20214;-84
2023/01/03 05:43:15;;;;;;;8.97;3.87;;;7.40;97.30;;;;;;4971834;28;20231;-83
2023/01/03 05:45:41;;;;;;;1.83;1.40;;;7.40;97.30;;;;;;4973221;28;20900;-83
2023/01/03 05:48:08;;;;;;;2.77;1.60;;;7.40;97.30;;;;;;4973221;28;20174;-83
2023/01/03 05:50:33;;;;;;;1.97;1.83;;;7.40;97.30;;;;;;4971756;28;20423;-83
2023/01/03 05:52:59;;;;;;;18.93;2.87;;;7.40;97.30;;;;;;4971598;28;20433;-83
2023/01/03 05:55:25;;;;;;;3.20;2.20;;;7.40;97.30;;;;;;4971496;28;20186;-84
2023/01/03 05:57:52;;;;;;;4.13;3.70;;;7.30;97.30;;;;;;4972813;28;20254;-85
2023/01/03 06:00:18;;;;;;;1.87;1.77;;;7.40;97.30;;;;;;4972866;28;20299;-82
2023/01/03 06:02:43;;;;;;;3.90;3.70;;;7.40;97.30;;;;;;4971304;28;20529;-83
2023/01/03 06:05:09;;;;;;;1.97;1.87;;;7.40;97.30;;;;;;4970840;28;20418;-86
2023/01/03 06:07:36;;;;;;;1.57;1.47;;;7.40;97.30;;;;;;4971792;28;20233;-83
2023/01/03 06:10:02;;;;;;;1.30;1.20;;;7.40;97.30;;;;;;4971112;28;20271;-82
2023/01/03 06:12:29;;;;;;;2.43;2.23;;;7.40;97.30;;;;;;4973550;28;20469;-81
2023/01/03 06:14:54;;;;;;;6.67;1.93;;;7.40;97.30;;;;;;4973365;28;20933;-84
2023/01/03 06:20:04;;;;;;;1.60;1.50;;;7.40;97.30;;;;;;4973780;28;20224;-86
2023/01/03 06:22:30;;;;;;;2.73;1.53;;;7.40;97.30;;;;;;4971764;28;20561;-86
2023/01/03 06:24:55;;;;;;;10.03;4.37;;;7.40;97.30;;;;;;4971271;28;20517;-84
2023/01/03 06:27:21;;;;;;;2.30;1.90;;;7.40;97.30;;;;;;4971180;28;20609;-84
2023/01/03 06:29:46;;;;;;;2.97;2.27;;;7.40;97.30;;;;;;4970965;28;20608;-86
2023/01/03 06:32:12;;;;;;;1.53;1.47;;;7.40;97.30;;;;;;4970791;28;20669;-84
2023/01/03 06:34:37;;;;;;;2.57;2.43;;;7.50;97.30;;;;;;4971275;28;20233;-85
2023/01/03 06:37:03;;;;;;;1.90;1.80;;;7.50;97.30;;;;;;4967194;28;20179;-84
2023/01/03 06:39:29;;;;;;;6.53;2.60;;;7.50;97.30;;;;;;4969023;28;20638;-84
2023/01/03 06:41:54;;;;;;;2.73;1.93;;;7.50;97.30;;;;;;4969071;28;20222;-84
2023/01/03 06:44:19;;;;;;;2.43;2.10;;;7.50;97.30;;;;;;4971472;28;20198;-85
2023/01/03 06:55:00;;;;;;;1.73;1.63;;;7.50;97.30;;;;;;4972192;28;20468;-85
2023/01/03 06:57:25;;;;;;;2.90;2.70;;;7.50;97.30;;;;;;4971624;28;20422;-84
2023/01/03 06:59:51;;;;;;;3.13;2.27;;;7.50;97.30;;;;;;4971154;28;20762;-85
2023/01/03 07:02:16;;;;;;;3.33;2.07;;;7.50;97.30;;;;;;4971939;28;20260;-84
2023/01/03 07:04:42;;;;;;;4.00;2.63;;;7.50;97.30;;;;;;4971685;28;20537;-85
2023/01/03 07:07:07;;;;;;;3.23;2.13;;;7.50;97.30;;;;;;4970571;28;20190;-85
2023/01/03 07:09:33;;;;;;;4.30;1.67;;;7.50;97.30;;;;;;4967674;28;20190;-84
2023/01/03 07:13:57;;;;;;;4.40;2.37;;;7.50;97.30;;;;;;4972242;28;20213;-85
2023/01/03 07:14:44;;;;;;;1.57;1.50;;;7.50;97.30;;;;;;4972208;28;20182;-84
2023/01/03 07:17:09;;;;;;;1.83;1.73;;;7.40;97.30;;;;;;4971415;28;20425;-84
2023/01/03 07:19:34;;;;;;;1.50;1.40;;;7.40;97.30;;;;;;4969357;28;20652;-85
2023/01/03 07:22:00;;;;;;;1.53;1.43;;;7.40;97.30;;;;;;4972329;28;20261;-85
2023/01/03 07:24:26;;;;;;;1.20;1.10;;;7.40;97.30;;;;;;4974068;28;20178;-84
2023/01/03 07:26:51;;;;;;;2.50;2.37;;;7.40;97.30;;;;;;4974586;28;20174;-85
2023/01/03 07:29:17;;;;;;;2.13;1.97;;;7.40;97.30;;;;;;4974251;28;20182;-85
2023/01/03 07:31:42;;;;;;;3.30;3.10;;;7.30;97.30;;;;;;4972825;28;20213;-85
2023/01/03 07:34:08;;;;;;;8.73;2.40;;;7.20;97.30;;;;;;4974263;28;20189;-85
2023/01/03 07:36:34;;;;;;;2.20;2.00;;;7.20;97.30;;;;;;4975336;28;20190;-84
2023/01/03 07:38:59;;;;;;;4.17;3.97;;;7.20;97.30;;;;;;4963998;28;20414;-86
2023/01/03 07:43:35;;;;;;;1.77;1.70;;;7.20;97.30;;;;;;4971470;28;20229;-84
2023/01/03 07:44:10;;;;;;;3.37;2.87;;;7.10;97.30;;;;;;4976843;28;20629;-86
2023/01/03 07:46:36;;;;;;;3.77;2.53;;;7.10;97.30;;;;;;4974832;28;20417;-86
2023/01/03 07:49:01;;;;;;;6.30;3.10;;;7.00;97.30;;;;;;4977447;28;20198;-83
2023/01/03 07:51:27;;;;;;;9.73;6.90;;;7.00;97.30;;;;;;4976026;28;20584;-85
2023/01/03 07:53:53;;;;;;;5.40;3.93;;;6.90;97.30;;;;;;4975545;28;20175;-84
2023/01/03 07:56:20;;;;;;;4.47;3.10;;;6.90;97.30;;;;;;4975659;28;20182;-84
2023/01/03 07:58:46;;;;;;;24.20;4.10;;;6.90;97.30;;;;;;4977965;28;20617;-85
2023/01/03 08:01:17;;;;;;;3.10;1.83;;;6.80;97.30;;;;;;4984656;28;20534;-83
2023/01/03 08:03:43;;;;;;;3.03;1.73;;;6.80;97.30;;;;;;4977724;28;20798;-85
2023/01/03 08:06:11;;;;;;;4.87;1.77;;;6.80;97.30;;;;;;4975147;28;20421;-85
2023/01/03 08:08:37;;;;;;;8.40;4.20;;;6.70;97.30;;;;;;4975932;28;20508;-87
2023/01/03 08:13:48;;;;;;;3.23;2.57;;;6.70;97.30;;;;;;4977901;28;20433;-83
2023/01/03 08:16:16;;;;;;;2.37;2.03;;;6.70;97.30;;;;;;4976090;28;20417;-86
2023/01/03 08:18:42;;;;;;;2.23;2.03;;;6.70;97.30;;;;;;4976920;28;20460;-85
2023/01/03 08:21:09;;;;;;;2.13;1.97;;;6.60;97.30;;;;;;4977886;28;20493;-87
2023/01/03 08:23:35;;;;;;;2.67;2.47;;;6.60;97.30;;;;;;4976475;28;20654;-83
2023/01/03 08:26:07;;;;;;;16.77;2.00;;;6.60;97.30;;;;;;4976399;28;20471;-87
2023/01/03 08:28:33;;;;;;;4.83;2.43;;;6.60;97.30;;;;;;4976887;28;20646;-85
2023/01/03 08:31:02;;;;;;;2.80;2.50;;;6.50;97.30;;;;;;4976812;28;20964;-84
2023/01/03 08:33:32;;;;;;;5.27;2.50;;;6.50;97.30;;;;;;4975798;28;20505;-83
2023/01/03 08:36:04;;;;;;;4.93;2.73;;;6.50;97.30;;;;;;4976343;28;20513;-84
2023/01/03 08:38:53;;;;;;;9.30;2.80;;;6.50;97.30;;;;;;4967978;28;20431;-85
2023/01/03 08:41:23;;;;;;;4.87;3.57;;;6.50;97.30;;;;;;4956518;28;20472;-83
2023/01/03 08:43:49;;;;;;;1.83;1.73;;;6.60;97.30;;;;;;4957129;29;20926;-83
2023/01/03 08:46:16;;;;;;;4.77;2.70;;;6.70;97.30;;;;;;4957487;28;20510;-84
2023/01/03 08:48:42;;;;;;;7.37;3.27;;;6.70;97.30;;;;;;4957616;28;20237;-87
2023/01/03 08:51:07;;;;;;;31.17;3.40;;;6.70;97.30;;;;;;4956794;28;20422;-84
2023/01/03 08:53:33;;;;;;;2.80;2.60;;;6.70;97.30;;;;;;4957011;29;20930;-83
2023/01/03 08:55:59;;;;;;;3.37;1.90;;;6.70;97.30;;;;;;4956797;29;20199;-85
2023/01/03 08:58:24;;;;;;;6.87;2.93;;;6.80;97.30;;;;;;4956949;28;20187;-85
2023/01/03 09:00:50;;;;;;;3.13;2.23;;;6.80;97.30;;;;;;4956223;29;20195;-84
2023/01/03 09:03:15;;;;;;;4.47;2.53;;;6.80;97.30;;;;;;4956805;28;20202;-83
2023/01/03 09:05:41;;;;;;;1.40;1.30;;;6.80;97.30;;;;;;4957703;29;20183;-83
2023/01/03 09:08:07;;;;;;;5.90;2.07;;;6.90;97.30;;;;;;4956313;28;20175;-85
2023/01/03 09:10:33;;;;;;;1.43;1.33;;;7.00;97.30;;;;;;4956829;29;20167;-84
2023/01/03 09:13:00;;;;;;;3.20;2.23;;;7.00;97.30;;;;;;4956485;28;20442;-85
2023/01/03 09:15:26;;;;;;;2.13;1.93;;;7.10;97.30;;;;;;4969839;28;20521;-85
2023/01/03 09:17:51;;;;;;;2.60;1.90;;;7.00;97.30;;;;;;4975218;28;20529;-87
2023/01/03 09:20:17;;;;;;;3.43;2.33;;;7.10;97.30;;;;;;4976743;28;20178;-86
2023/01/03 09:22:43;;;;;;;1.40;1.30;;;7.10;97.30;;;;;;4975727;28;20748;-83
2023/01/03 09:25:09;;;;;;;1.00;0.90;;;7.10;97.30;;;;;;4975715;28;20182;-83
2023/01/03 09:27:34;;;;;;;2.83;1.73;;;7.10;97.30;;;;;;4975213;28;20270;-86
2023/01/03 09:30:00;;;;;;;1.60;1.50;;;7.10;97.30;;;;;;4976301;28;20190;-83
2023/01/03 09:32:26;;;;;;;1.47;1.40;;;7.10;97.30;;;;;;4976425;28;20213;-84
2023/01/03 09:34:51;;;;;;;2.03;1.93;;;7.10;97.30;;;;;;4976955;28;20195;-83
2023/01/03 09:37:16;;;;;;;2.10;1.87;;;7.10;97.30;;;;;;4976633;28;20214;-88
2023/01/03 09:39:42;;;;;;;1.80;1.73;;;7.20;97.30;;;;;;4975880;28;20593;-84
2023/01/03 09:45:00;;;;;;;2.13;1.97;;;7.40;97.30;;;;;;4972064;28;20180;-90
2023/01/03 09:47:26;;;;;;;3.53;2.03;;;7.60;97.30;;;;;;4976187;28;20414;-89
2023/01/03 09:49:53;;;;;;;3.10;1.70;;;7.70;97.30;;;;;;4979277;28;20198;-89
2023/01/03 10:04:18;;;;;;;1.30;1.20;;;8.30;97.30;;;;;;4977746;28;20420;-87
2023/01/03 10:06:53;;;;;;;1.33;1.23;;;8.40;97.30;;;;;;4979426;28;20426;-90
2023/01/03 10:09:42;;;;;;;1.23;1.13;;;8.50;97.30;;;;;;4979383;28;20519;-89
2023/01/03 10:12:13;;;;;;;2.17;2.00;;;8.60;97.30;;;;;;4974796;28;21016;-90
2023/01/03 10:14:49;;;;;;;1.40;1.30;;;8.60;97.30;;;;;;4976845;28;20429;-89
2023/01/03 10:17:53;;;;;;;2.33;2.13;;;8.70;97.30;;;;;;4975882;28;20425;-89
2023/01/03 10:20:46;;;;;;;1.63;1.53;;;8.80;97.30;;;;;;4975444;28;20611;-87
2023/01/03 10:23:12;;;;;;;1.30;1.20;;;8.90;97.30;;;;;;4974780;28;20442;-91
2023/01/03 10:25:40;;;;;;;2.30;1.37;;;8.90;97.30;;;;;;4975570;28;20925;-87
2023/01/03 10:28:14;;;;;;;1.20;1.10;;;9.00;97.30;;;;;;4974893;28;20618;-87
2023/01/03 10:30:56;;;;;;;1.10;1.10;;;9.10;97.30;;;;;;4977054;28;20810;-92
2023/01/03 10:33:33;;;;;;;1.20;1.10;;;9.10;97.30;;;;;;4973464;28;21007;-86
2023/01/03 10:36:00;;;;;;;1.20;1.10;;;9.10;97.30;;;;;;4974171;28;20432;-84
2023/01/03 10:38:26;;;;;;;1.83;1.53;;;9.20;97.30;;;;;;4967677;28;20423;-86
2023/01/03 10:40:58;;;;;;;1.40;1.30;;;9.30;97.30;;;;;;4956351;29;20422;-88
2023/01/03 10:43:42;;;;;;;1.90;1.80;;;9.40;97.30;;;;;;4952231;29;20528;-86
2023/01/03 10:46:20;;;;;;;2.20;2.00;;;9.40;97.30;;;;;;4956755;29;20418;-89
2023/01/03 10:48:50;;;;;;;1.77;1.63;;;9.40;97.30;;;;;;4959852;29;20402;-88
2023/01/03 10:51:25;;;;;;;2.17;1.30;;;9.50;97.30;;;;;;4959266;29;20430;-90
2023/01/03 10:53:54;;;;;;;1.50;1.50;;;9.60;97.30;;;;;;4960333;28;20433;-89
2023/01/03 10:56:20;;;;;;;1.67;1.57;;;9.70;97.30;;;;;;4964639;29;20423;-90
2023/01/03 10:58:46;;;;;;;1.43;1.33;;;9.80;97.30;;;;;;4964054;28;20483;-88
2023/01/03 11:01:23;;;;;;;1.37;1.27;;;10.00;97.30;;;;;;4962169;29;20498;-87
2023/01/03 11:04:07;;;;;;;1.10;1.00;;;10.00;97.30;;;;;;4962679;29;20286;-88
2023/01/03 11:06:33;;;;;;;1.30;1.20;;;10.10;97.30;;;;;;4964377;28;20433;-90
2023/01/03 11:09:03;;;;;;;2.90;2.70;;;10.20;97.30;;;;;;4961631;29;20430;-87
2023/01/03 11:11:33;;;;;;;3.50;2.27;;;10.30;97.30;;;;;;4965057;28;20206;-89
2023/01/03 11:14:08;;;;;;;1.63;1.53;;;10.30;97.30;;;;;;4960896;28;20563;-87
2023/01/03 11:16:33;;;;;;;1.70;1.37;;;10.30;97.30;;;;;;4964524;29;20952;-92
2023/01/03 11:19:04;;;;;;;1.10;1.00;;;10.40;97.30;;;;;;4960662;29;20498;-86
2023/01/03 11:21:42;;;;;;;2.23;2.03;;;10.40;97.30;;;;;;4956553;29;20219;-87
2023/01/03 11:24:19;;;;;;;1.40;1.23;;;10.40;97.30;;;;;;4954242;29;20430;-86
2023/01/03 11:27:15;;;;;;;1.33;1.23;;;10.40;97.30;;;;;;4955931;29;20435;-93
2023/01/03 11:29:49;;;;;;;1.10;1.00;;;10.40;97.30;;;;;;4955856;29;20429;-89
2023/01/03 11:32:39;;;;;;;1.83;1.73;;;10.40;97.30;;;;;;4955135;29;20473;-89
2023/01/03 11:35:33;;;;;;;1.17;1.10;;;10.40;97.30;;;;;;4953671;29;20485;-85
2023/01/03 11:38:21;;;;;;;1.40;1.30;;;10.30;97.30;;;;;;4951342;29;20470;-87
2023/01/03 11:41:12;;;;;;;12.90;1.53;;;10.10;97.30;;;;;;4945251;28;20486;-88
2023/01/03 11:43:40;;;;;;;1.27;1.17;;;9.90;97.30;;;;;;4953757;29;20477;-87
2023/01/03 11:46:20;;;;;;;1.30;1.20;;;9.80;97.30;;;;;;4954111;29;20506;-88
2023/01/03 11:49:05;;;;;;;1.20;1.10;;;9.70;97.30;;;;;;4953770;29;20415;-89
2023/01/03 11:51:43;;;;;;;1.30;1.20;;;9.60;97.30;;;;;;4958710;29;20427;-88
2023/01/03 11:54:30;;;;;;;1.13;1.03;;;9.50;97.30;;;;;;4955077;29;20427;-89
2023/01/03 11:57:02;;;;;;;1.47;1.37;;;9.60;97.30;;;;;;4954348;29;20426;-85
2023/01/03 11:59:35;;;;;;;2.43;2.23;;;9.60;97.30;;;;;;4955696;29;20430;-84
2023/01/03 12:02:01;;;;;;;1.00;0.90;;;9.80;97.30;;;;;;4955969;29;20502;-86
2023/01/03 12:04:35;;;;;;;2.90;2.23;;;10.00;97.30;;;;;;4954260;28;20985;-89
2023/01/03 12:07:18;;;;;;;1.13;1.03;;;10.20;97.30;;;;;;4959688;29;20599;-92
2023/01/03 12:09:56;;;;;;;1.00;0.90;;;10.30;97.30;;;;;;4960586;29;20402;-89
2023/01/03 12:12:49;;;;;;;1.03;0.93;;;10.30;97.30;;;;;;4958562;29;21031;-88
2023/01/03 12:15:25;;;;;;;2.80;1.40;;;10.40;97.30;;;;;;4957284;29;20423;-85
2023/01/03 12:18:00;;;;;;;1.83;1.73;;;10.60;97.30;;;;;;4958977;29;20422;-86
2023/01/03 12:20:30;;;;;;;1.20;1.20;;;10.70;97.30;;;;;;4957738;29;20475;-85
2023/01/03 12:23:05;;;;;;;1.50;1.40;;;10.90;97.20;;;;;;4957809;29;20466;-87
2023/01/03 12:25:37;;;;;;;1.10;1.00;;;10.80;96.90;;;;;;4957754;29;21089;-85
2023/01/03 12:28:06;;;;;;;1.20;1.10;;;11.00;96.50;;;;;;4958445;29;20419;-85
2023/01/03 12:31:07;;;;;;;1.37;1.27;;;11.20;96.30;;;;;;4958250;29;20459;-85
2023/01/03 12:33:43;;;;;;;1.20;1.10;;;11.20;95.50;;;;;;4957652;29;20430;-89
2023/01/03 12:36:28;;;;;;;1.57;1.47;;;11.40;95.50;;;;;;4959360;29;20407;-87
2023/01/03 12:39:37;;;;;;;1.10;1.00;;;11.50;94.90;;;;;;4947392;29;20488;-85
2023/01/03 12:42:21;;;;;;;1.10;1.00;;;11.50;94.40;;;;;;4912107;29;20483;-89
2023/01/03 12:44:56;;;;;;;1.07;0.97;;;11.70;94.20;;;;;;4940524;29;20415;-85
2023/01/03 12:47:52;;;;;;;1.33;1.23;;;11.80;93.20;;;;;;4939258;29;20484;-86
2023/01/03 12:50:29;;;;;;;2.40;1.50;;;11.90;93.10;;;;;;4941413;29;20419;-88
2023/01/03 12:53:10;;;;;;;1.30;1.20;;;12.20;93.00;;;;;;4938843;29;20454;-90
2023/01/03 12:55:54;;;;;;;1.07;0.97;;;12.20;92.00;;;;;;4940691;28;20465;-86
2023/01/03 12:58:41;;;;;;;1.20;1.10;;;12.10;91.60;;;;;;4955876;28;20464;-89
2023/01/03 13:01:25;;;;;;;1.30;1.20;;;12.00;91.70;;;;;;4956058;28;20551;-90
2023/01/03 13:03:56;;;;;;;0.90;0.80;;;11.70;91.50;;;;;;4948263;28;20389;-85
2023/01/03 13:06:27;;;;;;;8.73;1.50;;;11.50;91.20;;;;;;4957568;28;20472;-84
2023/01/03 13:08:59;;;;;;;1.30;1.20;;;11.30;91.60;;;;;;4965680;28;20657;-90
2023/01/03 13:11:35;;;;;;;1.07;1.00;;;11.30;91.80;;;;;;4973697;28;20448;-91
2023/01/03 13:14:23;;;;;;;1.10;1.00;;;11.30;91.70;;;;;;4962023;28;20456;-88
2023/01/03 13:17:09;;;;;;;1.10;1.00;;;11.40;91.80;;;;;;4936744;28;20503;-86
2023/01/03 13:19:34;;;;;;;0.90;0.80;;;11.00;91.90;;;;;;4951025;29;20444;-84
2023/01/03 13:22:18;;;;;;;0.90;0.80;;;10.90;92.30;;;;;;4954344;28;20481;-85
2023/01/03 13:24:48;;;;;;;1.10;1.00;;;10.70;92.90;;;;;;4955391;29;20189;-84
2023/01/03 13:27:19;;;;;;;1.27;1.17;;;10.50;93.50;;;;;;4955563;29;20451;-85
2023/01/03 13:29:48;;;;;;;1.60;1.50;;;10.40;94.30;;;;;;4954523;29;20437;-88
2023/01/03 13:32:28;;;;;;;1.20;1.10;;;10.40;94.40;;;;;;4954822;28;21078;-86
2023/01/03 13:34:56;;;;;;;1.03;0.93;;;10.60;94.60;;;;;;4955278;29;20438;-85
2023/01/03 13:37:26;;;;;;;1.10;1.00;;;10.70;94.30;;;;;;4954743;28;20436;-85
2023/01/03 13:40:10;;;;;;;1.27;1.17;;;11.00;94.30;;;;;;4949687;29;20524;-88
2023/01/03 13:42:38;;;;;;;1.10;1.10;;;11.00;93.90;;;;;;4954547;28;20527;-85
2023/01/03 13:45:09;;;;;;;1.30;1.20;;;10.90;93.90;;;;;;4954316;29;20393;-86
2023/01/03 13:47:55;;;;;;;1.60;1.50;;;11.00;94.30;;;;;;4954522;29;20453;-86
2023/01/03 13:50:23;;;;;;;1.37;1.27;;;11.10;94.00;;;;;;4954093;29;20439;-87
2023/01/03 13:53:09;;;;;;;1.60;1.50;;;11.40;93.40;;;;;;4954251;28;20915;-84
2023/01/03 13:55:47;;;;;;;2.00;1.90;;;11.60;92.80;;;;;;4954937;29;20422;-87
2023/01/03 13:58:30;;;;;;;1.93;1.83;;;11.70;92.50;;;;;;4954597;29;20430;-88
2023/01/03 14:00:58;;;;;;;2.27;1.70;;;12.00;92.40;;;;;;4954357;29;20958;-87
2023/01/03 14:03:32;;;;;;;1.70;1.57;;;12.20;91.50;;;;;;4948800;28;20450;-88
2023/01/03 14:06:16;;;;;;;9.03;1.40;;;12.20;91.50;;;;;;4952547;29;20431;-86
2023/01/03 14:09:24;;;;;;;1.40;1.30;;;12.30;91.30;;;;;;4952756;29;20960;-85
2023/01/03 14:12:23;;;;;;;1.20;1.10;;;12.40;90.90;;;;;;4936941;28;20534;-88
2023/01/03 14:14:56;;;;;;;1.63;1.00;;;12.50;90.80;;;;;;4953328;29;20917;-88
2023/01/03 14:17:32;;;;;;;1.00;0.90;;;12.60;90.70;;;;;;4953441;29;20448;-88